Latest Weather Observations for Nullarbor

IDS60801

Issued at 8:31 pm CDT Sunday 24 January 2021 (issued every 10 minutes, with the page automatically refreshed every 10 minutes)

About weather observations | Map of weather stations | Latest weather observations for SA | Other Formats
Station Details ID: 018106 Name: NULLARBOR Lat: -31.45 Lon: 130.90 Height: 64.0 m
Data from the previous 72 hours. | See also: Recent months at Nullarbor
Date/Time
CDT
Temp
°C
App
Temp
°C
Dew
Point
°C
Rel
Hum
%
Delta-T
°C
Wind Press
QNH
hPa
Press
MSL
hPa
Rain since
9am
mm
Dir  Spd
km/h
Gust
km/h
Spd
kts
Gust
kts
24/08:30pm 24.8 27.9 22.9 89 1.3 E 11 13 6 7 1001.0 1000.7 2.8
24/08:00pm 24.6 27.4 23.0 91 1.1 ESE 13 17 7 9 1000.5 1000.2 2.8
24/07:30pm 24.1 27.4 23.9 99 0.1 SE 13 17 7 9 1000.7 1000.4 2.8
24/07:05pm 23.8 26.2 23.6 99 0.1 ENE 17 20 9 11 1000.9 1000.6 2.8
24/07:00pm 23.9 26.3 23.7 99 0.1 NE 17 20 9 11 1001.1 1000.8 2.8
24/06:39pm 23.7 24.1 21.8 89 1.3 N 22 32 12 17 1001.3 1001.0 1.0
24/06:30pm 24.7 23.6 21.0 80 2.4 N 28 41 15 22 1001.2 1000.9 0.0
24/06:28pm 24.9 23.2 20.6 77 2.8 N 30 41 16 22 1001.2 1000.9 0.0
24/06:00pm 29.9 27.8 15.2 41 9.1 ESE 20 28 11 15 1000.4 1000.1 0.0
24/05:30pm 31.9 29.4 14.1 34 10.9 SE 20 32 11 17 1000.1 999.8 0.0
24/05:00pm 33.7 32.2 13.2 29 12.4 NNE 13 22 7 12 1000.6 1000.3 0.0
24/04:30pm 33.0 30.7 13.1 30 12.0 ENE 17 28 9 15 1001.0 1000.7 0.0
24/04:00pm 32.7 30.7 13.8 31 11.5 ENE 17 32 9 17 1001.6 1001.4 0.0
24/03:37pm 31.9 29.1 13.2 32 11.2 ENE 20 46 11 25 1002.2 1002.0 0.0
24/03:30pm 32.3 30.9 13.5 32 11.4 E 13 20 7 11 1002.0 1001.8 0.0
24/03:00pm 30.4 28.0 14.5 38 9.7 SE 20 26 11 14 1002.4 1002.2 0.0
24/02:30pm 30.8 28.4 14.4 36 10.0 ESE 20 28 11 15 1002.7 1002.5 0.0
24/02:00pm 32.7 28.7 12.9 30 11.9 ENE 26 33 14 18 1003.2 1003.0 0.0
24/01:30pm 32.8 29.8 11.9 28 12.4 ENE 19 33 10 18 1003.2 1003.0 0.0
24/01:00pm 31.8 28.1 14.0 34 10.8 NE 26 37 14 20 1004.3 1004.1 0.0
24/12:30pm 32.0 30.3 13.7 33 11.1 NE 15 28 8 15 1004.4 1004.2 0.0
24/12:00pm 31.7 29.9 14.4 35 10.6 ENE 17 24 9 13 1004.7 1004.5 0.0
24/11:30am 30.7 29.6 14.3 36 10.0 NE 13 19 7 10 1004.6 1004.4 0.0
24/11:00am 30.7 28.7 13.9 36 10.2 NNE 17 26 9 14 1004.6 1004.4 0.0
24/10:30am 30.6 31.1 15.1 39 9.6 NE 6 11 3 6 1004.4 1004.2 0.0
24/10:00am 29.4 31.2 15.5 43 8.6 CALM 0 0 0 0 1004.6 1004.4 0.0
24/09:30am 28.6 28.8 15.8 45 7.9 NNW 9 11 5 6 1004.9 1004.7 0.0
24/09:00am 27.9 27.9 16.2 49 7.3 N 11 17 6 9 1004.9 1004.7 0.0
24/08:30am 26.0 26.5 16.5 55 5.9 N 9 11 5 6 1005.0 1004.8 0.0
24/08:00am 25.9 25.5 16.2 55 6.0 ESE 13 22 7 12 1004.7 1004.5 0.0
24/07:30am 25.0 24.0 16.7 60 5.1 NNE 17 28 9 15 1005.3 1005.1 0.0
24/07:00am 25.1 22.9 16.8 60 5.1 E 24 43 13 23 1004.6 1004.4 0.0
24/06:47am 23.6 22.1 17.6 69 3.7 E 22 32 12 17 1004.3 1004.1 0.0
24/06:30am 23.2 20.9 17.7 71 3.4 ESE 26 37 14 20 1002.1 1001.9 0.0
24/06:00am 23.1 20.5 17.8 72 3.3 ESE 28 37 15 20 1002.8 1002.6 0.0
24/05:30am 22.7 21.3 18.0 75 3.0 SE 22 30 12 16 1002.2 1002.0 0.0
24/05:00am 23.3 21.4 17.7 71 3.5 SSE 24 32 13 17 1002.7 1002.5 0.0
24/04:30am 23.5 23.0 18.6 74 3.1 ESE 19 30 10 16 1003.9 1003.7 0.0
24/04:00am 22.7 22.4 18.3 76 2.8 SE 17 26 9 14 1004.4 1004.2 0.0
24/03:30am 22.7 21.3 18.0 75 2.9 SE 22 30 12 16 1003.7 1003.5 0.0
24/03:00am 23.3 22.2 17.7 71 3.5 SSE 20 28 11 15 1004.2 1004.0 0.0
24/02:30am 24.9 23.5 16.9 61 5.0 SE 20 28 11 15 1004.5 1004.3 0.0
24/02:27am 25.0 23.5 16.7 60 5.1 SE 20 26 11 14 1004.7 1004.5 0.0
24/02:00am 25.9 27.2 17.0 58 5.5 SW 6 11 3 6 1006.7 1006.5 0.0
24/01:30am 26.2 26.0 16.7 56 5.9 WNW 13 17 7 9 1007.3 1007.0 0.0
24/01:00am 26.4 26.9 16.6 55 6.1 W 9 13 5 7 1007.6 1007.3 0.0
24/12:30am 26.6 25.8 16.2 52 6.4 W 15 19 8 10 1007.8 1007.5 0.0
24/12:00am 27.2 26.0 16.2 51 6.8 WSW 17 22 9 12 1007.7 1007.4 0.0
 
Date/Time
CDT
Temp
°C
App
Temp
°C
Dew
Point
°C
Rel
Hum
%
Delta-T
°C
Wind Press
QNH
hPa
Press
MSL
hPa
Rain since
9am
mm
Dir  Spd
km/h
Gust
km/h
Spd
kts
Gust
kts
23/11:30pm 27.5 25.4 16.1 49 7.1 W 22 30 12 16 1008.2 1007.9 0.0
23/11:00pm 27.4 26.2 17.0 53 6.5 W 19 24 10 13 1008.1 1007.8 0.0
23/10:30pm 27.4 26.1 17.3 54 6.4 SW 20 26 11 14 1008.0 1007.7 0.0
23/10:00pm 27.7 26.0 17.3 53 6.5 WSW 22 28 12 15 1007.5 1007.2 0.0
23/09:30pm 27.8 24.6 17.3 52 6.6 W 30 44 16 24 1007.9 1007.6 0.0
23/09:00pm 28.8 25.4 15.7 45 8.1 WSW 28 39 15 21 1007.7 1007.4 0.0
23/08:34pm 29.3 24.7 15.1 42 8.7 WSW 33 52 18 28 1006.6 1006.4 0.0
23/08:30pm 29.4 25.3 14.8 41 8.9 WSW 30 41 16 22 1006.5 1006.3 0.0
23/08:15pm 29.9 25.7 13.6 36 9.8 SW 28 43 15 23 1006.1 1005.9 0.0
23/08:00pm 30.6 28.8 13.4 35 10.3 SW 15 22 8 12 1005.5 1005.3 0.0
23/07:30pm 31.7 29.0 13.0 32 11.2 SW 19 26 10 14 1005.0 1004.8 0.0
23/07:00pm 31.8 28.6 13.1 32 11.2 SSW 22 32 12 17 1004.2 1004.0 0.0
23/06:30pm 32.5 28.2 13.2 31 11.7 SSW 28 43 15 23 1003.5 1003.3 0.0
23/06:00pm 33.0 28.5 12.6 29 12.2 SW 28 39 15 21 1003.5 1003.3 0.0
23/05:30pm 33.4 28.6 12.9 28 12.4 SW 30 41 16 22 1003.5 1003.3 0.0
23/05:00pm 34.3 28.1 12.6 27 13.0 SW 37 50 20 27 1003.4 1003.2 0.0
23/04:30pm 34.5 28.2 12.2 26 13.4 SW 37 46 20 25 1003.1 1002.9 0.0
23/04:00pm 37.1 30.3 11.8 22 15.2 SSW 39 50 21 27 1002.9 1002.7 0.0
23/03:30pm 37.3 30.9 12.0 22 15.3 SW 37 46 20 25 1003.3 1003.1 0.0
23/03:00pm 37.5 30.8 12.2 22 15.4 SSW 39 50 21 27 1003.5 1003.3 0.0
23/02:30pm 37.1 29.7 11.1 21 15.5 SW 41 52 22 28 1003.4 1003.2 0.0
23/02:00pm 38.9 31.8 9.4 17 17.2 WSW 37 50 20 27 1003.4 1003.2 0.0
23/01:56pm 38.5 31.1 8.2 16 17.4 WSW 37 54 20 29 1003.3 1003.1 0.0
23/01:51pm 39.0 31.1 7.7 15 17.8 SW 39 57 21 31 1003.3 1003.1 0.0
23/01:30pm 40.0 30.6 2.6 10 19.9 WSW 41 54 22 29 1002.9 1002.7 0.0
23/01:28pm 39.9 30.9 2.5 10 19.8 WSW 39 54 21 29 1002.9 1002.7 0.0
23/01:23pm 40.2 32.4 2.8 10 19.9 W 33 54 18 29 1003.0 1002.8 0.0
23/01:00pm 41.8 32.9 0.8 8 21.4 WNW 37 57 20 31 1003.3 1003.1 0.0
23/12:41pm 42.5 34.6 1.3 8 21.7 WNW 32 48 17 26 1003.4 1003.2 0.0
23/12:30pm 42.4 34.0 1.3 8 21.8 NW 35 48 19 26 1003.4 1003.2 0.0
23/12:21pm 42.5 34.1 1.3 8 21.7 NW 35 54 19 29 1003.4 1003.2 0.0
23/12:00pm 42.4 33.7 -0.6 7 22.1 NNW 35 52 19 28 1003.5 1003.3 0.0
23/11:30am 40.7 30.3 -1.8 7 21.3 N 43 54 23 29 1003.6 1003.4 0.0
23/11:00am 40.7 30.7 -1.8 7 21.2 N 41 56 22 30 1003.7 1003.5 0.0
23/10:30am 39.3 29.0 -1.0 8 20.2 N 43 56 23 30 1003.7 1003.5 0.0
23/10:00am 38.0 27.8 -0.3 9 19.2 N 43 57 23 31 1003.8 1003.6 0.0
23/09:30am 36.0 26.4 0.9 11 17.8 N 41 50 22 27 1004.1 1003.9 0.0
23/09:00am 33.2 25.5 2.1 14 15.8 NNE 32 43 17 23 1004.3 1004.1 0.0
23/08:30am 29.3 22.5 3.3 19 13.2 NNE 28 37 15 20 1004.5 1004.3 0.0
23/08:00am 26.1 19.7 3.4 23 11.2 NNE 26 32 14 17 1004.5 1004.3 0.0
23/07:30am 24.3 18.6 3.0 25 10.4 NNE 22 26 12 14 1004.5 1004.3 0.0
23/07:00am 24.3 18.6 3.0 25 10.3 NNE 22 26 12 14 1004.0 1003.8 0.0
23/06:30am 24.5 18.9 3.2 25 10.4 NNE 22 30 12 16 1003.6 1003.4 0.0
23/06:00am 24.7 19.1 3.4 25 10.5 NE 22 28 12 15 1003.5 1003.3 0.0
23/05:30am 24.7 19.1 3.4 25 10.5 NNE 22 28 12 15 1003.5 1003.3 0.0
23/05:00am 25.0 19.3 3.0 24 10.7 NNE 22 26 12 14 1003.5 1003.3 0.0
23/04:30am 25.6 20.4 3.6 24 10.9 NE 20 26 11 14 1003.3 1003.1 0.0
23/04:00am 25.3 20.2 3.3 24 10.8 NE 19 22 10 12 1003.2 1003.0 0.0
23/03:30am 26.1 20.5 3.4 23 11.3 NE 22 26 12 14 1003.3 1003.1 0.0
23/03:00am 26.1 20.6 4.0 24 11.1 ENE 22 26 12 14 1003.3 1003.1 0.0
23/02:51am 25.7 20.2 4.2 25 10.8 ENE 22 28 12 15 1003.4 1003.2 0.0
23/02:30am 20.7 16.5 5.5 37 7.6 ENE 17 17 9 9 1003.5 1003.3 0.0
23/02:00am 22.3 18.6 6.1 35 8.2 ENE 15 19 8 10 1003.8 1003.6 0.0
23/01:30am 23.5 19.4 8.0 37 8.2 ENE 19 22 10 12 1003.8 1003.6 0.0
23/01:00am 21.4 19.2 12.0 55 5.3 E 15 19 8 10 1004.0 1003.8 0.0
23/12:30am 22.0 19.8 12.0 53 5.7 E 15 19 8 10 1004.2 1004.0 0.0
23/12:00am 22.9 20.2 11.6 49 6.4 E 17 19 9 10 1004.2 1004.0 0.0
 
Date/Time
CDT
Temp
°C
App
Temp
°C
Dew
Point
°C
Rel
Hum
%
Delta-T
°C
Wind Press
QNH
hPa
Press
MSL
hPa
Rain since
9am
mm
Dir  Spd
km/h
Gust
km/h
Spd
kts
Gust
kts
22/11:30pm 23.9 20.6 10.9 44 7.3 E 19 24 10 13 1004.3 1004.1 0.0
22/11:00pm 25.6 21.7 9.4 36 8.9 E 20 26 11 14 1004.5 1004.3 0.0
22/10:30pm 26.5 22.2 9.4 34 9.5 E 22 28 12 15 1004.4 1004.2 0.0
22/10:00pm 27.6 22.8 9.0 31 10.2 ESE 24 32 13 17 1004.4 1004.2 0.0
22/09:30pm 26.7 22.0 10.8 37 9.0 ESE 26 33 14 18 1004.3 1004.1 0.0
22/09:00pm 26.6 21.5 10.7 37 9.0 ESE 28 37 15 20 1004.2 1004.0 0.0
22/08:30pm 27.8 21.1 9.6 32 10.2 ESE 35 48 19 26 1003.9 1003.7 0.0
22/08:00pm 28.4 20.9 9.6 31 10.5 ESE 39 50 21 27 1003.7 1003.5 0.0
22/07:30pm 29.7 21.6 8.7 27 11.7 ESE 41 56 22 30 1003.8 1003.6 0.0
22/07:00pm 30.5 20.9 6.4 22 12.9 ESE 46 57 25 31 1003.8 1003.6 0.0
22/06:30pm 30.3 21.0 7.5 24 12.5 ESE 46 59 25 32 1004.0 1003.8 0.0
22/06:09pm 30.5 21.9 8.3 25 12.3 ESE 43 61 23 33 1004.5 1004.3 0.0
22/06:00pm 30.8 22.3 9.1 26 12.2 ESE 44 57 24 31 1004.6 1004.4 0.0
22/05:48pm 30.6 22.7 9.5 27 11.9 ESE 41 59 22 32 1004.6 1004.4 0.0
22/05:40pm 30.9 22.6 9.2 26 12.2 ESE 43 57 23 31 1004.7 1004.5 0.0
22/05:30pm 31.0 22.4 10.4 28 11.8 ESE 46 57 25 31 1004.7 1004.5 0.0
22/05:21pm 31.1 22.2 9.3 26 12.3 ESE 46 59 25 32 1004.9 1004.7 0.0
22/05:20pm 31.3 22.5 9.5 26 12.3 ESE 46 59 25 32 1004.9 1004.7 0.0
22/05:02pm 32.3 23.8 9.2 24 13.1 ESE 44 56 24 30 1005.2 1005.0 0.0
22/05:00pm 32.3 23.8 9.2 24 13.1 ESE 44 56 24 30 1005.2 1005.0 0.0
22/04:30pm 32.3 25.1 10.4 26 12.7 ESE 39 48 21 26 1005.7 1005.5 0.0
22/04:00pm 33.3 26.1 10.6 25 13.2 ESE 39 50 21 27 1006.0 1005.8 0.0
22/03:30pm 33.8 26.4 9.8 23 13.8 SE 39 46 21 25 1006.4 1006.2 0.0
22/03:00pm 35.1 27.6 8.0 19 15.3 ESE 37 46 20 25 1006.6 1006.4 0.0
22/02:30pm 35.5 28.9 7.6 18 15.7 SE 32 41 17 22 1007.3 1007.0 0.0
22/02:00pm 35.0 29.0 8.7 20 14.9 SE 30 41 16 22 1007.7 1007.4 0.0
22/01:30pm 34.5 28.6 7.5 19 15.1 SE 28 35 15 19 1008.1 1007.8 0.0
22/01:00pm 35.1 30.5 9.5 21 14.7 SE 24 30 13 16 1008.6 1008.3 0.0
22/12:30pm 34.7 30.4 9.2 21 14.6 SE 22 30 12 16 1009.1 1008.8 0.0
22/12:00pm 34.1 30.2 9.4 22 14.1 ESE 20 24 11 13 1009.5 1009.2 0.0
22/11:30am 34.1 30.4 10.0 23 13.9 ESE 20 28 11 15 1009.6 1009.3 0.0
22/11:00am 34.8 29.0 4.4 15 16.1 ENE 24 30 13 16 1009.8 1009.5 0.0
22/10:30am 33.8 28.1 2.6 14 16.0 NE 22 32 12 17 1010.1 1009.8 0.0
22/10:00am 31.9 26.7 3.8 17 14.5 NE 20 30 11 16 1010.4 1010.1 0.0
22/09:30am 29.8 24.5 5.1 21 12.9 NE 22 30 12 16 1010.5 1010.2 0.0
22/09:00am 27.5 22.3 5.7 25 11.4 NE 22 28 12 15 1010.1 1009.8 0.0
22/08:30am 23.9 20.9 7.5 35 8.6 NE 13 19 7 10 1009.9 1009.6 0.0
22/08:00am 21.6 19.6 8.8 44 6.8 ENE 9 13 5 7 1009.5 1009.2 0.0
22/07:30am 17.1 14.2 8.3 56 4.5 E 13 15 7 8 1009.2 1008.9 0.0
22/07:00am 17.0 14.1 8.2 56 4.5 ENE 13 15 7 8 1009.0 1008.7 0.0
22/06:30am 17.4 13.8 8.3 55 4.7 ENE 17 20 9 11 1008.6 1008.3 0.0
22/06:00am 17.0 13.5 8.7 58 4.3 ENE 17 20 9 11 1008.5 1008.2 0.0
22/05:30am 16.8 13.9 9.5 62 3.8 ENE 15 17 8 9 1008.6 1008.3 0.0
22/05:00am 16.7 14.0 11.6 72 2.8 ENE 17 19 9 10 1008.5 1008.2 0.0
22/04:30am 17.1 15.4 12.4 74 2.6 ENE 13 15 7 8 1008.9 1008.6 0.0
22/04:00am 17.1 15.1 12.6 75 2.5 E 15 17 8 9 1008.8 1008.5 0.0
22/03:30am 17.7 16.3 12.2 70 3.1 ESE 11 13 6 7 1008.9 1008.6 0.0
22/03:00am 19.3 17.7 12.8 66 3.7 ENE 13 15 7 8 1008.9 1008.6 0.0
22/02:30am 19.7 18.5 12.7 64 4.0 E 11 13 6 7 1009.3 1009.0 0.0
22/02:00am 20.4 18.4 12.6 61 4.4 E 15 19 8 10 1009.4 1009.1 0.0
22/01:30am 20.8 17.4 12.5 59 4.7 ESE 22 28 12 15 1009.2 1008.9 0.0
22/01:00am 20.7 16.9 12.4 59 4.7 ESE 24 30 13 16 1009.7 1009.4 0.0
22/12:30am 20.8 16.4 12.8 60 4.6 SE 28 37 15 20 1009.7 1009.4 0.0
22/12:00am 20.9 17.2 12.8 60 4.6 ESE 24 32 13 17 1010.0 1009.7 0.0
 
Date/Time
CDT
Temp
°C
App
Temp
°C
Dew
Point
°C
Rel
Hum
%
Delta-T
°C
Wind Press
QNH
hPa
Press
MSL
hPa
Rain since
9am
mm
Dir  Spd
km/h
Gust
km/h
Spd
kts
Gust
kts
21/11:30pm 21.5 18.1 12.4 56 5.2 ESE 22 28 12 15 1010.4 1010.1 0.0
21/11:00pm 22.4 18.3 11.5 50 6.1 ESE 24 32 13 17 1009.9 1009.6 0.0
21/10:30pm 22.8 18.9 10.9 47 6.6 ESE 22 30 12 16 1009.9 1009.6 0.0
21/10:00pm 22.8 18.5 10.6 46 6.7 ESE 24 32 13 17 1009.8 1009.5 0.0
21/09:30pm 23.4 18.8 9.8 42 7.4 ESE 24 32 13 17 1009.6 1009.3 0.0
21/09:00pm 24.3 19.3 9.5 39 8.1 ESE 26 37 14 20 1009.8 1009.5 0.0

Other formats

Comma delimited format used in spreadsheet applications
http://www.bom.gov.au/fwo/IDS60801/IDS60801.94651.axf

JavaScript Object Notation format (JSON) in row-major order
http://www.bom.gov.au/fwo/IDS60801/IDS60801.94651.json

Data quality

Most of these data are generated automatically and are frequently updated. Quality checks on data are not normally performed. It is possible for incorrect values to appear. Refer to information at About Latest Weather Observations and please check the disclaimer before using these data.